createdAt,value
2023-03-23T00:00:39.133Z,0
2023-03-23T00:01:48.244Z,0
2023-03-23T00:02:57.408Z,0
2023-03-23T00:04:05.609Z,0
2023-03-23T00:05:13.890Z,0
2023-03-23T00:06:23.013Z,0
2023-03-23T00:07:32.267Z,0
2023-03-23T00:08:41.395Z,0
2023-03-23T00:09:50.728Z,0
2023-03-23T00:10:58.719Z,0
2023-03-23T00:12:06.880Z,0
2023-03-23T00:13:16.219Z,0
2023-03-23T00:14:25.432Z,0
2023-03-23T00:15:34.553Z,0
2023-03-23T00:16:43.706Z,0
2023-03-23T00:17:52.736Z,0
2023-03-23T00:19:02.077Z,0
2023-03-23T00:20:11.178Z,0
2023-03-23T00:21:20.282Z,0
2023-03-23T00:22:29.539Z,0
2023-03-23T00:23:38.724Z,0
2023-03-23T00:24:47.821Z,0
2023-03-23T00:25:56.932Z,0
2023-03-23T00:27:05.147Z,0
2023-03-23T00:29:23.473Z,0
2023-03-23T00:30:32.634Z,0
2023-03-23T00:31:41.992Z,0
2023-03-23T00:32:51.160Z,0
2023-03-23T00:34:00.168Z,0
2023-03-23T00:35:09.461Z,0
2023-03-23T00:36:17.602Z,0
2023-03-23T00:37:25.790Z,0
2023-03-23T00:38:35.029Z,0
2023-03-23T00:39:44.184Z,0
2023-03-23T00:40:53.525Z,0
2023-03-23T00:42:02.517Z,0
2023-03-23T00:43:10.760Z,0
2023-03-23T00:44:18.813Z,0
2023-03-23T00:45:28.102Z,0
2023-03-23T00:46:37.306Z,0
2023-03-23T00:47:46.384Z,0
2023-03-23T00:48:55.542Z,0
2023-03-23T00:50:04.678Z,0
2023-03-23T00:51:13.915Z,0
2023-03-23T00:52:23.147Z,0
2023-03-23T00:53:32.306Z,0
2023-03-23T00:54:41.499Z,0
2023-03-23T00:55:50.527Z,0
2023-03-23T00:56:59.701Z,0
2023-03-23T00:58:08.866Z,0
2023-03-23T00:59:18.112Z,0
2023-03-23T01:00:26.260Z,0
2023-03-23T01:01:35.458Z,0
2023-03-23T01:02:44.579Z,0
2023-03-23T01:03:53.921Z,0
2023-03-23T01:05:02.928Z,0
2023-03-23T01:06:12.144Z,0
2023-03-23T01:07:20.303Z,0
2023-03-23T01:08:28.472Z,0
2023-03-23T01:09:36.687Z,0
2023-03-23T01:10:44.862Z,0
2023-03-23T01:11:54.238Z,0
2023-03-23T01:13:03.280Z,0
2023-03-23T01:14:12.471Z,0
2023-03-23T01:15:21.718Z,0
2023-03-23T01:16:30.724Z,0
2023-03-23T01:17:40.054Z,0
2023-03-23T01:18:49.206Z,0
2023-03-23T01:21:07.442Z,0
2023-03-23T01:22:16.581Z,0
2023-03-23T01:23:25.929Z,0
2023-03-23T01:24:34.967Z,0
2023-03-23T01:25:43.108Z,0
2023-03-23T01:26:52.286Z,0
2023-03-23T01:28:01.452Z,0
2023-03-23T01:29:10.760Z,0
2023-03-23T01:30:19.805Z,0
2023-03-23T01:31:29.030Z,0
2023-03-23T01:32:38.260Z,0
2023-03-23T01:33:47.338Z,0
2023-03-23T01:34:55.669Z,0
2023-03-23T01:36:03.713Z,0
2023-03-23T01:37:12.866Z,0
2023-03-23T01:38:21.076Z,0
2023-03-23T01:39:29.399Z,0
2023-03-23T01:40:38.531Z,0
2023-03-23T01:41:47.816Z,0
2023-03-23T01:42:56.970Z,0
2023-03-23T01:44:06.114Z,0
2023-03-23T01:45:15.278Z,0
2023-03-23T01:46:24.380Z,0
2023-03-23T01:47:33.507Z,0
2023-03-23T01:48:42.639Z,0
2023-03-23T01:49:51.932Z,0
2023-03-23T01:51:00.975Z,0
2023-03-23T01:52:10.164Z,0
2023-03-23T01:53:19.482Z,0
2023-03-23T01:54:27.688Z,0
2023-03-23T01:55:36.839Z,0
2023-03-23T01:56:46.042Z,0
2023-03-23T01:57:55.124Z,0
2023-03-23T01:59:04.310Z,0
2023-03-23T02:00:13.557Z,0
2023-03-23T02:01:22.721Z,0
2023-03-23T02:02:31.023Z,0
2023-03-23T02:03:38.941Z,0
2023-03-23T02:04:48.173Z,0
2023-03-23T02:05:56.335Z,0
2023-03-23T02:07:04.545Z,0
2023-03-23T02:08:13.709Z,0
2023-03-23T02:09:23.026Z,0
2023-03-23T02:10:32.141Z,0
2023-03-23T02:11:41.178Z,0
2023-03-23T02:12:50.411Z,0
2023-03-23T02:13:59.679Z,0
2023-03-23T02:15:08.703Z,0
2023-03-23T02:16:17.873Z,0
2023-03-23T02:17:27.086Z,0
2023-03-23T02:18:36.296Z,0
2023-03-23T02:19:45.541Z,0
2023-03-23T02:20:54.554Z,0
2023-03-23T02:22:03.787Z,0
2023-03-23T02:23:11.999Z,0
2023-03-23T02:24:21.245Z,0
2023-03-23T02:25:30.443Z,0
2023-03-23T02:26:39.585Z,0
2023-03-23T02:27:48.619Z,0
2023-03-23T02:28:57.839Z,0
2023-03-23T02:30:05.970Z,0
2023-03-23T02:31:14.187Z,0
2023-03-23T02:32:23.338Z,0
2023-03-23T02:33:32.568Z,0
2023-03-23T02:34:41.678Z,0
2023-03-23T02:35:50.849Z,0
2023-03-23T02:36:59.082Z,0
2023-03-23T02:38:07.363Z,0
2023-03-23T02:39:16.503Z,0
2023-03-23T02:40:25.580Z,0
2023-03-23T02:41:34.763Z,0
2023-03-23T02:42:44.052Z,0
2023-03-23T02:43:53.284Z,0
2023-03-23T02:45:02.401Z,0
2023-03-23T02:46:11.671Z,0
2023-03-23T02:47:20.668Z,0
2023-03-23T02:48:29.899Z,0
2023-03-23T02:49:39.131Z,0
2023-03-23T02:50:48.301Z,0
2023-03-23T02:51:57.306Z,0
2023-03-23T02:53:05.551Z,0
2023-03-23T02:54:14.669Z,0
2023-03-23T02:55:23.957Z,0
2023-03-23T02:56:33.019Z,0
2023-03-23T02:57:42.330Z,0
2023-03-23T02:58:51.482Z,0
2023-03-23T03:00:00.530Z,0
2023-03-23T03:01:08.727Z,0
2023-03-23T03:02:16.941Z,0
2023-03-23T03:03:26.098Z,0
2023-03-23T03:04:35.426Z,0
2023-03-23T03:05:44.580Z,0
2023-03-23T03:06:53.642Z,0
2023-03-23T03:08:01.802Z,0
2023-03-23T03:09:10.123Z,0
2023-03-23T03:10:19.241Z,0
2023-03-23T03:11:28.412Z,0
2023-03-23T03:12:37.500Z,0
2023-03-23T03:13:46.840Z,0
2023-03-23T03:14:56.044Z,0
2023-03-23T03:16:05.110Z,0
2023-03-23T03:17:14.199Z,0
2023-03-23T03:18:23.343Z,0
2023-03-23T03:19:32.645Z,0
2023-03-23T03:20:41.832Z,0
2023-03-23T03:21:51.013Z,0
2023-03-23T03:23:00.203Z,0
2023-03-23T03:24:08.280Z,0
2023-03-23T03:25:17.445Z,0
2023-03-23T03:26:26.613Z,0
2023-03-23T03:27:35.878Z,0
2023-03-23T03:28:44.943Z,0
2023-03-23T03:29:54.182Z,0
2023-03-23T03:31:03.288Z,0
2023-03-23T03:32:11.595Z,0
2023-03-23T03:34:28.908Z,0
2023-03-23T03:35:38.152Z,0
2023-03-23T03:36:47.264Z,0
2023-03-23T03:37:56.515Z,0
2023-03-23T03:39:05.544Z,0
2023-03-23T03:40:14.678Z,0
2023-03-23T03:41:24.089Z,0
2023-03-23T03:42:33.172Z,0
2023-03-23T03:43:41.419Z,0
2023-03-23T03:44:49.548Z,0
2023-03-23T03:45:58.689Z,0
2023-03-23T03:47:07.767Z,0
2023-03-23T03:48:17.067Z,0
2023-03-23T03:49:26.220Z,0
2023-03-23T03:50:35.448Z,0
2023-03-23T03:51:44.545Z,0
2023-03-23T03:52:53.623Z,0
2023-03-23T03:54:02.877Z,0
2023-03-23T03:55:11.966Z,0
2023-03-23T03:56:21.139Z,0
2023-03-23T03:57:30.456Z,0
2023-03-23T03:58:39.594Z,0
2023-03-23T03:59:47.812Z,0
2023-03-23T04:00:57.016Z,0
2023-03-23T04:02:06.095Z,0
2023-03-23T04:03:15.322Z,0
2023-03-23T04:04:24.373Z,0
2023-03-23T04:05:33.708Z,0
2023-03-23T04:06:42.734Z,0
2023-03-23T04:07:50.943Z,0
2023-03-23T04:08:59.085Z,0
2023-03-23T04:10:07.467Z,0
2023-03-23T04:11:16.455Z,0
2023-03-23T04:12:24.641Z,0
2023-03-23T04:13:33.995Z,0
2023-03-23T04:14:43.147Z,0
2023-03-23T04:15:52.165Z,0
2023-03-23T04:17:01.351Z,0
2023-03-23T04:18:10.554Z,0
2023-03-23T04:19:19.744Z,0
2023-03-23T04:20:28.842Z,0
2023-03-23T04:21:38.112Z,0
2023-03-23T04:22:47.192Z,0
2023-03-23T04:23:56.515Z,0
2023-03-23T04:25:05.604Z,0
2023-03-23T04:26:14.787Z,0
2023-03-23T04:27:22.942Z,0
2023-03-23T04:28:32.123Z,0
2023-03-23T04:29:41.353Z,0
2023-03-23T04:30:50.688Z,0
2023-03-23T04:31:59.606Z,0
2023-03-23T04:33:08.770Z,0
2023-03-23T04:34:18.066Z,0
2023-03-23T04:35:26.160Z,0
2023-03-23T04:36:35.315Z,0
2023-03-23T04:37:44.640Z,0
2023-03-23T04:38:53.648Z,0
2023-03-23T04:40:02.996Z,0
2023-03-23T04:41:11.995Z,0
2023-03-23T04:42:21.570Z,0
2023-03-23T04:43:30.457Z,0
2023-03-23T04:44:39.516Z,0
2023-03-23T04:45:48.678Z,0
2023-03-23T04:46:57.912Z,0
2023-03-23T04:48:07.060Z,0
2023-03-23T04:49:16.190Z,0
2023-03-23T04:50:24.523Z,0
2023-03-23T04:51:32.693Z,0
2023-03-23T04:52:40.821Z,0
2023-03-23T04:53:50.101Z,0
2023-03-23T04:54:59.260Z,0
2023-03-23T04:56:07.294Z,0
2023-03-23T04:57:15.502Z,3
2023-03-23T04:58:24.742Z,3
2023-03-23T04:59:33.947Z,3
2023-03-23T05:00:43.114Z,3
2023-03-23T05:01:52.328Z,3
2023-03-23T05:03:01.422Z,3
2023-03-23T05:04:10.672Z,4
2023-03-23T05:05:19.707Z,4
2023-03-23T05:06:29.019Z,4
2023-03-23T05:07:38.039Z,9
2023-03-23T05:08:47.420Z,9
2023-03-23T05:09:56.434Z,9
2023-03-23T05:11:05.687Z,13
2023-03-23T05:12:13.804Z,10
2023-03-23T05:13:23.096Z,10
2023-03-23T05:14:32.148Z,23
2023-03-23T05:15:41.386Z,19
2023-03-23T05:16:50.506Z,36
2023-03-23T05:17:59.723Z,36
2023-03-23T05:19:08.915Z,47
2023-03-23T05:20:16.969Z,53
2023-03-23T05:21:26.220Z,62
2023-03-23T05:23:43.515Z,71
2023-03-23T05:24:52.743Z,72
2023-03-23T05:26:01.927Z,68
2023-03-23T05:27:11.179Z,94
2023-03-23T05:28:20.192Z,107
2023-03-23T05:29:29.464Z,114
2023-03-23T05:30:38.727Z,110
2023-03-23T05:31:47.854Z,105
2023-03-23T05:32:57.030Z,86
2023-03-23T05:34:06.207Z,122
2023-03-23T05:35:15.387Z,132
2023-03-23T05:36:24.491Z,154
2023-03-23T05:37:32.689Z,121
2023-03-23T05:38:41.845Z,145
2023-03-23T05:39:51.034Z,164
2023-03-23T05:41:00.109Z,153
2023-03-23T05:42:09.390Z,196
2023-03-23T05:43:18.548Z,286
2023-03-23T05:44:27.748Z,396
2023-03-23T05:45:35.911Z,361
2023-03-23T05:46:44.989Z,378
2023-03-23T05:47:53.305Z,400
2023-03-23T05:49:01.407Z,384
2023-03-23T05:50:10.544Z,374
2023-03-23T05:51:19.909Z,405
2023-03-23T05:52:29.087Z,442
2023-03-23T05:53:38.158Z,423
2023-03-23T05:55:56.498Z,529
2023-03-23T05:57:05.729Z,530
2023-03-23T05:58:14.904Z,482
2023-03-23T05:59:23.924Z,481
2023-03-23T06:00:33.232Z,461
2023-03-23T06:01:42.386Z,366
2023-03-23T06:02:51.546Z,453
2023-03-23T06:03:59.740Z,737
2023-03-23T06:05:08.965Z,770
2023-03-23T06:06:17.966Z,694
2023-03-23T06:07:27.273Z,679
2023-03-23T06:08:36.453Z,621
2023-03-23T06:09:45.556Z,540
2023-03-23T06:10:54.773Z,528
2023-03-23T06:12:03.977Z,503
2023-03-23T06:13:12.122Z,338
2023-03-23T06:14:20.379Z,456
2023-03-23T06:15:28.592Z,344
2023-03-23T06:16:36.712Z,612
2023-03-23T06:17:45.962Z,814
2023-03-23T06:18:55.094Z,1087
2023-03-23T06:20:04.221Z,1287
2023-03-23T06:21:13.469Z,1254
2023-03-23T06:22:22.656Z,1140
2023-03-23T06:23:31.822Z,1064
2023-03-23T06:24:40.979Z,942
2023-03-23T06:25:50.001Z,1037
2023-03-23T06:26:59.146Z,1039
2023-03-23T06:28:08.486Z,867
2023-03-23T06:29:17.645Z,930
2023-03-23T06:30:26.874Z,1079
2023-03-23T06:31:35.005Z,1234
2023-03-23T06:32:44.185Z,1388
2023-03-23T06:33:53.377Z,1386
2023-03-23T06:35:02.500Z,1299
2023-03-23T06:36:11.738Z,1298
2023-03-23T06:37:20.894Z,1361
2023-03-23T06:38:30.152Z,1531
2023-03-23T06:39:38.264Z,1719
2023-03-23T06:40:46.374Z,1727
2023-03-23T06:43:04.777Z,1935
2023-03-23T06:44:13.887Z,1840
2023-03-23T06:45:21.978Z,1914
2023-03-23T06:46:31.321Z,2238
2023-03-23T06:47:39.508Z,2734
2023-03-23T06:48:48.658Z,2642
2023-03-23T06:49:57.854Z,2899
2023-03-23T06:51:07.006Z,3354
2023-03-23T06:52:16.208Z,3583
2023-03-23T06:53:25.358Z,3929
2023-03-23T06:54:34.600Z,4117
2023-03-23T06:55:43.706Z,4059
2023-03-23T06:56:52.939Z,3763
2023-03-23T06:58:02.018Z,3783
2023-03-23T06:59:11.137Z,4050
2023-03-23T07:00:20.234Z,2705
2023-03-23T07:01:29.607Z,6147
2023-03-23T07:02:37.748Z,4522
2023-03-23T07:03:46.925Z,4470
2023-03-23T07:04:56.152Z,4187
2023-03-23T07:06:05.289Z,4177
2023-03-23T07:07:14.313Z,3906
2023-03-23T07:08:23.641Z,3526
2023-03-23T07:09:31.782Z,3396
2023-03-23T07:10:39.823Z,3520
2023-03-23T07:11:48.215Z,3458
2023-03-23T07:12:56.394Z,3322
2023-03-23T07:14:05.411Z,3112
2023-03-23T07:15:14.715Z,3317
2023-03-23T07:16:23.775Z,3462
2023-03-23T07:17:33.060Z,3552
2023-03-23T07:18:42.080Z,3784
2023-03-23T07:19:51.425Z,3638
2023-03-23T07:21:00.593Z,3147
2023-03-23T07:22:09.826Z,2490
2023-03-23T07:23:19.012Z,2387
2023-03-23T07:24:28.118Z,2898
2023-03-23T07:25:37.277Z,3258
2023-03-23T07:26:46.437Z,3859
2023-03-23T07:27:54.471Z,4287
2023-03-23T07:29:03.909Z,4098
2023-03-23T07:30:12.985Z,2133
2023-03-23T07:31:22.199Z,3485
2023-03-23T07:32:31.305Z,4906
2023-03-23T07:33:40.488Z,5115
2023-03-23T07:34:49.659Z,5878
2023-03-23T07:35:57.710Z,5758
2023-03-23T07:37:06.008Z,5408
2023-03-23T07:38:15.182Z,5143
2023-03-23T07:39:24.233Z,5055
2023-03-23T07:40:33.406Z,4253
2023-03-23T07:41:42.635Z,3907
2023-03-23T07:42:51.937Z,5001
2023-03-23T07:44:00.916Z,5687
2023-03-23T07:45:10.308Z,6900
2023-03-23T07:46:19.491Z,6259
2023-03-23T07:47:27.644Z,6705
2023-03-23T07:48:35.854Z,6713
2023-03-23T07:49:44.922Z,6814
2023-03-23T07:50:53.991Z,6531
2023-03-23T07:53:12.420Z,4826
2023-03-23T07:55:30.820Z,4917
2023-03-23T07:56:39.859Z,5633
2023-03-23T07:57:49.031Z,4882
2023-03-23T07:58:58.196Z,5730
2023-03-23T08:00:07.383Z,5543
2023-03-23T08:01:16.689Z,5721
2023-03-23T08:02:24.822Z,4940
2023-03-23T08:03:33.917Z,4792
2023-03-23T08:04:42.213Z,5034
2023-03-23T08:05:51.449Z,5062
2023-03-23T08:07:00.477Z,6004
2023-03-23T08:08:09.740Z,6643
2023-03-23T08:09:18.826Z,5273
2023-03-23T08:10:28.064Z,4390
2023-03-23T08:12:46.311Z,4213
2023-03-23T08:13:55.671Z,3798
2023-03-23T08:15:04.750Z,3632
2023-03-23T08:16:13.827Z,5014
2023-03-23T08:18:32.304Z,5180
2023-03-23T08:19:40.365Z,4930
2023-03-23T08:20:48.670Z,5302
2023-03-23T08:21:57.730Z,5758
2023-03-23T08:23:06.950Z,4809
2023-03-23T08:25:25.364Z,4680
2023-03-23T08:26:33.428Z,3074
2023-03-23T08:27:42.641Z,3491
2023-03-23T08:28:51.895Z,2760
2023-03-23T08:30:01.025Z,2862
2023-03-23T08:31:10.305Z,2876
2023-03-23T08:32:19.329Z,3716
2023-03-23T08:33:28.623Z,5447
2023-03-23T08:34:37.810Z,5150
2023-03-23T08:35:46.865Z,6085
2023-03-23T08:36:55.992Z,6256
2023-03-23T08:38:05.200Z,6497
2023-03-23T08:39:14.372Z,7544
2023-03-23T08:40:23.499Z,7670
2023-03-23T08:41:31.686Z,8954
2023-03-23T08:42:40.887Z,8392
2023-03-23T08:43:50.032Z,9253
2023-03-23T08:44:58.230Z,9943
2023-03-23T08:46:06.425Z,10090
2023-03-23T08:47:15.657Z,9506
2023-03-23T08:48:24.863Z,9602
2023-03-23T08:49:33.021Z,9373
2023-03-23T08:50:42.189Z,9441
2023-03-23T08:52:59.485Z,8968
2023-03-23T08:54:08.741Z,8921
2023-03-23T08:55:17.942Z,8576
2023-03-23T08:56:27.001Z,8356
2023-03-23T08:58:45.433Z,8331
2023-03-23T08:59:54.629Z,8729
2023-03-23T09:01:03.774Z,8186
2023-03-23T09:02:12.931Z,7544
2023-03-23T09:03:22.167Z,6408
2023-03-23T09:04:30.244Z,5320
2023-03-23T09:05:38.547Z,4687
2023-03-23T09:06:47.603Z,4374
2023-03-23T09:07:56.832Z,5503
2023-03-23T09:09:06.020Z,4456
2023-03-23T09:10:15.116Z,4099
2023-03-23T09:11:24.346Z,4934
2023-03-23T09:12:33.586Z,4420
2023-03-23T09:13:42.760Z,3847
2023-03-23T09:14:51.786Z,2592
2023-03-23T09:16:00.962Z,2279
2023-03-23T09:17:09.154Z,3179
2023-03-23T09:18:17.446Z,3200
2023-03-23T09:19:26.610Z,3084
2023-03-23T09:20:35.864Z,2723
2023-03-23T09:21:45.005Z,2586
2023-03-23T09:22:54.222Z,2008
2023-03-23T09:24:03.356Z,1684
2023-03-23T09:25:12.473Z,2186
2023-03-23T09:26:21.554Z,1753
2023-03-23T09:27:30.815Z,1899
2023-03-23T09:28:39.898Z,1829
2023-03-23T09:30:57.273Z,2338
2023-03-23T09:32:05.507Z,2067
2023-03-23T09:33:14.804Z,1762
2023-03-23T09:34:23.872Z,2173
2023-03-23T09:35:32.979Z,2376
2023-03-23T09:36:42.348Z,4115
2023-03-23T09:37:51.331Z,3300
2023-03-23T09:39:00.595Z,3671
2023-03-23T09:40:09.726Z,4052
2023-03-23T09:41:18.848Z,3348
2023-03-23T09:42:28.112Z,2814
2023-03-23T09:43:36.391Z,1834
2023-03-23T09:44:44.446Z,624
2023-03-23T09:45:53.590Z,643
2023-03-23T09:47:02.767Z,2419
2023-03-23T09:48:11.959Z,3679
2023-03-23T09:49:21.280Z,3785
2023-03-23T09:50:30.386Z,4447
2023-03-23T09:51:39.480Z,4352
2023-03-23T09:52:47.768Z,3095
2023-03-23T09:53:56.006Z,2418
2023-03-23T09:55:05.102Z,2269
2023-03-23T09:56:14.346Z,2596
2023-03-23T09:57:23.492Z,3078
2023-03-23T09:58:32.615Z,3490
2023-03-23T09:59:41.809Z,3796
2023-03-23T10:00:50.913Z,5062
2023-03-23T10:02:00.143Z,5527
2023-03-23T10:03:09.292Z,4266
2023-03-23T10:04:18.474Z,3511
2023-03-23T10:05:27.596Z,3542
2023-03-23T10:06:36.742Z,3915
2023-03-23T10:07:45.943Z,4111
2023-03-23T10:08:54.091Z,3694
2023-03-23T10:10:03.264Z,3633
2023-03-23T10:11:12.530Z,4259
2023-03-23T10:13:30.748Z,5633
2023-03-23T10:14:39.921Z,6134
2023-03-23T10:15:49.151Z,6098
2023-03-23T10:16:58.266Z,5698
2023-03-23T10:19:16.624Z,4524
2023-03-23T10:20:25.786Z,4180
2023-03-23T10:21:35.079Z,4224
2023-03-23T10:22:44.197Z,5550
2023-03-23T10:23:52.335Z,6349
2023-03-23T10:25:00.583Z,5847
2023-03-23T10:26:08.709Z,5705
2023-03-23T10:27:17.073Z,5995
2023-03-23T10:28:25.207Z,7126
2023-03-23T10:29:34.381Z,7244
2023-03-23T10:30:43.428Z,7598
2023-03-23T10:31:52.623Z,8776
2023-03-23T10:33:01.857Z,8898
2023-03-23T10:34:11.078Z,7363
2023-03-23T10:35:20.114Z,5965
2023-03-23T10:36:29.482Z,5567
2023-03-23T10:37:38.577Z,6248
2023-03-23T10:38:47.631Z,5952
2023-03-23T10:39:56.843Z,6229
2023-03-23T10:43:24.347Z,7934
2023-03-23T10:44:32.563Z,7414
2023-03-23T10:45:40.831Z,7753
2023-03-23T10:46:49.911Z,9040
2023-03-23T10:47:59.054Z,10772
2023-03-23T10:49:08.430Z,11916
2023-03-23T10:50:17.409Z,12880
2023-03-23T10:51:26.579Z,14190
2023-03-23T10:52:35.886Z,7230
2023-03-23T10:53:44.923Z,18968
2023-03-23T10:54:54.110Z,19564
2023-03-23T10:56:03.397Z,12155
2023-03-23T10:57:11.617Z,11428
2023-03-23T10:58:19.747Z,10092
2023-03-23T10:59:29.019Z,7633
2023-03-23T11:00:38.166Z,5232
2023-03-23T11:01:47.216Z,4878
2023-03-23T11:02:56.437Z,5479
2023-03-23T11:04:05.666Z,5085
2023-03-23T11:05:14.763Z,4719
2023-03-23T11:06:24.185Z,5579
2023-03-23T11:07:33.101Z,6634
2023-03-23T11:08:42.358Z,6708
2023-03-23T11:09:51.370Z,5941
2023-03-23T11:11:00.541Z,5585
2023-03-23T11:12:09.743Z,7623
2023-03-23T11:13:17.993Z,8958
2023-03-23T11:14:27.360Z,8805
2023-03-23T11:15:36.349Z,8380
2023-03-23T11:16:45.562Z,7404
2023-03-23T11:17:54.620Z,5289
2023-03-23T11:19:03.775Z,4652
2023-03-23T11:20:12.941Z,4684
2023-03-23T11:21:21.129Z,4863
2023-03-23T11:22:29.326Z,5446
2023-03-23T11:23:38.511Z,6137
2023-03-23T11:24:47.764Z,8309
2023-03-23T11:27:06.178Z,7507
2023-03-23T11:28:15.396Z,7137
2023-03-23T11:29:24.344Z,7626
2023-03-23T11:30:33.601Z,7416
2023-03-23T11:31:42.778Z,7926
2023-03-23T11:32:51.932Z,6462
2023-03-23T11:34:01.278Z,7539
2023-03-23T11:35:10.227Z,9405
2023-03-23T11:36:19.504Z,10168
2023-03-23T11:37:27.572Z,8043
2023-03-23T11:38:36.767Z,6848
2023-03-23T11:39:45.969Z,5637
2023-03-23T11:40:55.143Z,4637
2023-03-23T11:42:04.270Z,5294
2023-03-23T11:43:13.566Z,6548
2023-03-23T11:44:22.604Z,8812
2023-03-23T11:45:31.908Z,10146
2023-03-23T11:46:39.993Z,11446
2023-03-23T11:47:49.310Z,11479
2023-03-23T11:48:57.454Z,13846
2023-03-23T11:50:06.593Z,13216
2023-03-23T11:51:14.751Z,10856
2023-03-23T11:52:22.969Z,9853
2023-03-23T11:53:32.125Z,10442
2023-03-23T11:54:41.231Z,11028
2023-03-23T11:55:50.405Z,13125
2023-03-23T11:56:59.670Z,15275
2023-03-23T11:58:08.873Z,15117
2023-03-23T11:59:18.054Z,14180
2023-03-23T12:00:27.408Z,14033
2023-03-23T12:01:36.344Z,14473
2023-03-23T12:02:45.590Z,13762
2023-03-23T12:03:54.603Z,15270
2023-03-23T12:05:03.808Z,15523
2023-03-23T12:06:12.961Z,15496
2023-03-23T12:07:21.147Z,20440
2023-03-23T12:08:30.476Z,16290
2023-03-23T12:09:39.634Z,16444
2023-03-23T12:10:48.723Z,17996
2023-03-23T12:11:57.926Z,17433
2023-03-23T12:13:07.001Z,15706
2023-03-23T12:14:16.343Z,15008
2023-03-23T12:15:25.402Z,14508
2023-03-23T12:16:33.545Z,15094
2023-03-23T12:17:41.910Z,15228
2023-03-23T12:18:50.157Z,14675
2023-03-23T12:19:58.113Z,14897
2023-03-23T12:21:07.487Z,15610
2023-03-23T12:22:16.446Z,13893
2023-03-23T12:24:35.006Z,14716
2023-03-23T12:25:44.106Z,22985
2023-03-23T12:26:53.296Z,13622
2023-03-23T12:28:02.511Z,7029
2023-03-23T12:30:20.884Z,16165
2023-03-23T12:31:30.042Z,17169
2023-03-23T12:32:39.021Z,11879
2023-03-23T12:33:47.397Z,15662
2023-03-23T12:34:55.550Z,16835
2023-03-23T12:36:04.568Z,8484
2023-03-23T12:37:13.897Z,18840
2023-03-23T12:38:23.069Z,9393
2023-03-23T12:39:32.230Z,11975
2023-03-23T12:40:41.418Z,13760
2023-03-23T12:41:50.610Z,21506
2023-03-23T12:42:59.685Z,9599
2023-03-23T12:44:08.942Z,16166
2023-03-23T12:45:18.121Z,15066
2023-03-23T12:46:26.178Z,16059
2023-03-23T12:47:34.413Z,21686
2023-03-23T12:48:43.495Z,19896
2023-03-23T12:49:52.665Z,7008
2023-03-23T12:51:01.840Z,22321
2023-03-23T12:52:11.012Z,5254
2023-03-23T12:53:20.171Z,21040
2023-03-23T12:54:29.357Z,29102
2023-03-23T12:56:47.703Z,27652
2023-03-23T12:57:56.873Z,15352
2023-03-23T12:59:06.049Z,10047
2023-03-23T13:00:15.220Z,5967
2023-03-23T13:01:24.422Z,3509
2023-03-23T13:02:32.570Z,4060
2023-03-23T13:03:41.744Z,6187
2023-03-23T13:04:50.905Z,12316
2023-03-23T13:06:00.096Z,13377
2023-03-23T13:07:09.266Z,5982
2023-03-23T13:08:18.437Z,35424
2023-03-23T13:09:27.797Z,17875
2023-03-23T13:10:36.944Z,21236
2023-03-23T13:11:45.123Z,7642
2023-03-23T13:12:53.156Z,14362
2023-03-23T13:14:02.334Z,26191
2023-03-23T13:15:10.679Z,7753
2023-03-23T13:16:18.712Z,21589
2023-03-23T13:17:27.884Z,13791
2023-03-23T13:18:37.192Z,9945
2023-03-23T13:19:46.221Z,14618
2023-03-23T13:20:55.485Z,14529
2023-03-23T13:22:04.579Z,9670
2023-03-23T13:23:13.745Z,0
2023-03-23T13:24:23.093Z,50546
2023-03-23T13:25:32.293Z,11922
2023-03-23T13:26:41.254Z,5320
2023-03-23T13:27:50.524Z,27027
2023-03-23T13:28:59.617Z,9801
2023-03-23T13:30:08.900Z,20882
2023-03-23T13:31:17.166Z,4261
2023-03-23T13:32:26.243Z,27070
2023-03-23T13:33:35.381Z,15415
2023-03-23T13:34:44.618Z,7010
2023-03-23T13:35:53.661Z,47479
2023-03-23T13:37:02.978Z,7471
2023-03-23T13:38:12.070Z,39578
2023-03-23T13:39:20.334Z,39494
2023-03-23T13:40:28.393Z,42407
2023-03-23T13:41:37.583Z,8649
2023-03-23T13:42:46.854Z,50748
2023-03-23T13:43:56.067Z,42890
2023-03-23T13:45:05.225Z,6302
2023-03-23T13:46:14.439Z,44265
2023-03-23T13:48:32.679Z,57286
2023-03-23T13:49:40.974Z,25885
2023-03-23T13:50:49.072Z,52359
2023-03-23T13:51:58.306Z,49387
2023-03-23T13:53:07.415Z,44343
2023-03-23T13:54:16.622Z,39648
2023-03-23T13:55:25.782Z,51831
2023-03-23T13:56:34.832Z,25609
2023-03-23T13:57:44.163Z,10161
2023-03-23T13:58:53.359Z,43346
2023-03-23T14:00:02.439Z,46889
2023-03-23T14:01:11.550Z,34539
2023-03-23T14:02:20.809Z,50152
2023-03-23T14:03:29.877Z,56842
2023-03-23T14:04:39.189Z,54907
2023-03-23T14:05:47.261Z,44153
2023-03-23T14:06:56.556Z,39561
2023-03-23T14:08:05.768Z,16981
2023-03-23T14:09:14.815Z,53446
2023-03-23T14:10:23.998Z,18955
2023-03-23T14:11:33.191Z,16983
2023-03-23T14:12:42.262Z,3457
2023-03-23T14:13:50.443Z,36470
2023-03-23T14:14:59.122Z,15318
2023-03-23T14:16:06.960Z,20358
2023-03-23T14:17:15.020Z,20277
2023-03-23T14:18:24.191Z,9256
2023-03-23T14:19:32.566Z,48688
2023-03-23T14:20:40.730Z,56193
2023-03-23T14:21:49.906Z,30469
2023-03-23T14:22:59.072Z,37954
2023-03-23T14:24:08.109Z,55770
2023-03-23T14:25:17.366Z,60262
2023-03-23T14:26:26.502Z,47580
2023-03-23T14:27:35.611Z,47414
2023-03-23T14:28:44.899Z,31227
2023-03-23T14:29:53.957Z,6331
2023-03-23T14:31:03.254Z,14300
2023-03-23T14:32:12.398Z,50048
2023-03-23T14:33:21.471Z,28439
2023-03-23T14:34:30.637Z,8310
2023-03-23T14:35:38.988Z,7687
2023-03-23T14:36:48.147Z,50562
2023-03-23T14:37:57.312Z,53606
2023-03-23T14:39:06.481Z,19632
2023-03-23T14:40:15.571Z,5468
2023-03-23T14:41:24.809Z,31752
2023-03-23T14:42:34.043Z,4172
2023-03-23T14:43:42.238Z,9635
2023-03-23T14:44:50.336Z,16125
2023-03-23T14:45:59.570Z,54595
2023-03-23T14:47:08.642Z,65504
2023-03-23T14:48:17.750Z,13382
2023-03-23T14:49:27.074Z,57084
2023-03-23T14:50:36.270Z,64598
2023-03-23T14:51:45.420Z,44215
2023-03-23T14:52:54.467Z,48183
2023-03-23T14:54:03.602Z,47372
2023-03-23T14:55:12.933Z,42449
2023-03-23T14:56:22.075Z,55804
2023-03-23T14:57:31.226Z,37700
2023-03-23T14:58:40.463Z,51215
2023-03-23T14:59:49.615Z,56250
2023-03-23T15:00:57.937Z,48198
2023-03-23T15:02:07.015Z,58315
2023-03-23T15:03:16.162Z,39100
2023-03-23T15:05:34.338Z,59199
2023-03-23T15:06:43.699Z,29439
2023-03-23T15:07:52.823Z,30595
2023-03-23T15:09:01.061Z,15110
2023-03-23T15:10:10.126Z,9116
2023-03-23T15:11:18.281Z,9123
2023-03-23T15:12:26.428Z,5923
2023-03-23T15:13:35.783Z,4896
2023-03-23T15:14:44.944Z,0
2023-03-23T15:15:53.959Z,34555
2023-03-23T15:17:03.267Z,9089
2023-03-23T15:19:20.584Z,6841
2023-03-23T15:20:28.818Z,5116
2023-03-23T15:21:37.112Z,36809
2023-03-23T15:22:46.157Z,13441
2023-03-23T15:23:55.304Z,18715
2023-03-23T15:25:04.558Z,11191
2023-03-23T15:26:13.680Z,12115
2023-03-23T15:27:22.738Z,14564
2023-03-23T15:28:31.953Z,5174
2023-03-23T15:29:41.251Z,18379
2023-03-23T15:30:50.244Z,62282
2023-03-23T15:31:59.632Z,35752
2023-03-23T15:33:08.722Z,5702
2023-03-23T15:34:17.864Z,31358
2023-03-23T15:35:26.945Z,6789
2023-03-23T15:38:53.668Z,19320
2023-03-23T15:40:01.832Z,14516
2023-03-23T15:41:09.889Z,9859
2023-03-23T15:42:19.193Z,7635
2023-03-23T15:43:28.280Z,8992
2023-03-23T15:44:37.510Z,8948
2023-03-23T15:45:46.699Z,8049
2023-03-23T15:46:55.875Z,7832
2023-03-23T15:48:04.997Z,7188
2023-03-23T15:49:14.252Z,3686
2023-03-23T15:50:23.299Z,20715
2023-03-23T15:51:32.535Z,8490
2023-03-23T15:52:40.785Z,7784
2023-03-23T15:53:48.975Z,7742
2023-03-23T15:54:58.148Z,7229
2023-03-23T15:56:07.143Z,6612
2023-03-23T15:57:16.480Z,5970
2023-03-23T15:58:25.482Z,5579
2023-03-23T15:59:34.665Z,6385
2023-03-23T16:00:44.007Z,6349
2023-03-23T16:01:53.113Z,6032
2023-03-23T16:03:02.420Z,4815
2023-03-23T16:04:11.353Z,3867
2023-03-23T16:05:20.642Z,3576
2023-03-23T16:06:29.810Z,3537
2023-03-23T16:07:38.975Z,2864
2023-03-23T16:08:47.247Z,3484
2023-03-23T16:09:56.417Z,3584
2023-03-23T16:11:05.484Z,3558
2023-03-23T16:12:14.752Z,3193
2023-03-23T16:13:23.733Z,3996
2023-03-23T16:14:33.077Z,3461
2023-03-23T16:15:42.133Z,3933
2023-03-23T16:16:50.333Z,3568